Flight Track Log - Related Links

Times and Time Zones

All times are in EDT time to prevent confusion due to time zone crossing. See the LXJ524 flight status page for this flight to view local times or setup timezone preferences in your user account.


Time Position Orientation Groundspeed Altitude Reporting Facility
EDT Latitude Longitude Course Direction KTS MPH feet Rate Location/Type
Thu 10:53:33 AM 32.9500 -96.8333 90° East 164 189 1,500  Level Dallas / Fort Worth TRACON
Thu 10:54:33 AM 32.9500 -96.7667 90° East 233 268 3,000 1,958 Climbing Dallas / Fort Worth TRACON
Thu 10:55:08 AM 32.9486 -96.7164 92° East 246 283 4,600 2,784 Climbing Fort Worth Center
Thu 10:56:10 AM 32.9550 -96.6153 86° East 285 328 7,500 2,903 Climbing Fort Worth Center
Thu 10:57:12 AM 32.9600 -96.5161 87° East 303 349 10,600 2,806 Climbing Fort Worth Center
Thu 10:58:14 AM 32.9661 -96.4003 86° East 322 371 13,300 2,112 Climbing Fort Worth Center
Thu 10:59:17 AM 32.9739 -96.2950 85° East 322 371 15,000 816 Climbing Fort Worth Center
Thu 11:00:19 AM 32.9897 -96.1944 79° East 281 323 15,000 48 Level Fort Worth Center
Thu 11:01:21 AM 33.0022 -96.1064 80° East 269 310 15,100 1,645 Climbing Fort Worth Center
Thu 11:02:23 AM 33.0156 -95.9961 82° East 314 361 18,400 3,048 Climbing Fort Worth Center
Thu 11:03:25 AM 33.0319 -95.8819 80° East 349 402 21,400 2,903 Climbing Fort Worth Center
Thu 11:04:27 AM 33.0497 -95.7558 80° East 364 419 24,400 2,661 Climbing Fort Worth Center
Thu 11:05:29 AM 33.0669 -95.6253 81° East 394 453 26,900 2,177 Climbing Fort Worth Center
Thu 11:06:31 AM 33.0925 -95.5044 76° East 422 486 28,900 1,016 Climbing Fort Worth Center
Thu 11:07:33 AM 33.1478 -95.3281 69° East 478 550 29,000 48 Climbing Fort Worth Center
Thu 11:08:36 AM 33.1967 -95.1664 70° East 511 588 29,000 960 Level Fort Worth Center
Thu 11:09:38 AM 33.2436 -95.0106 70° East 503 579 31,000 1,016 Climbing Fort Worth Center
Thu 11:10:40 AM 33.2906 -94.8533 70° East 501 577 31,100 823 Climbing Fort Worth Center
Thu 11:11:42 AM 33.3356 -94.6933 71° East 507 583 32,700 2,758 Climbing Fort Worth Center
Thu 11:12:44 AM 33.3881 -94.5133 71° East 474 545 36,800 3,532 Climbing Fort Worth Center
Thu 11:13:46 AM 33.4292 -94.3719 71° East 452 520 40,000 2,371 Climbing Fort Worth Center
Thu 11:14:48 AM 33.4753 -94.2475 66° East 413 475 41,700 1,258 Climbing Fort Worth Center
Thu 11:15:50 AM 33.5678 -94.1794 32° Northeast 410 472 42,600 629 Climbing Fort Worth Center
Thu 11:16:52 AM 33.6692 -94.2086 347° North 397 457 43,000 192 Climbing Fort Worth Center
Thu 11:17:55 AM 33.7631 -94.2853 326° Northwest 403 464 43,000  Level Fort Worth Center
Thu 11:18:57 AM 33.8561 -94.3636 325° Northwest 416 479 43,000 -484 Level Fort Worth Center
Thu 11:19:59 AM 33.9172 -94.5119 296° West 424 488 42,000 -1,306 Descending Fort Worth Center
Thu 11:21:01 AM 33.9136 -94.6531 268° West 433 498 40,300 -2,419 Descending Fort Worth Center
Thu 11:22:03 AM 33.8675 -94.7911 248° West 449 517 37,000 -2,419 Descending Fort Worth Center
Thu 11:23:05 AM 33.8183 -94.9211 246° West 435 501 35,300 -968 Descending Fort Worth Center
Thu 11:24:07 AM 33.7725 -95.0422 246° West 411 473 35,000 -823 Descending Fort Worth Center
Thu 11:25:09 AM 33.7050 -95.1833 240° Southwest 408 470 33,600 -2,081 Descending Fort Worth Center
Thu 11:26:11 AM 33.6556 -95.3072 244° Southwest 412 474 30,700 -2,928 Descending Fort Worth Center
Thu 11:27:14 AM 33.6086 -95.4281 245° Southwest 403 464 27,500 -3,600 Descending Fort Worth Center
Thu 11:28:16 AM 33.5603 -95.5597 246° West 398 458 23,200 -4,065 Descending Fort Worth Center
Thu 11:29:18 AM 33.5136 -95.6847 246° West 394 453 19,100 -3,774 Descending Fort Worth Center
Thu 11:30:20 AM 33.4661 -95.8083 245° Southwest 384 442 15,400 -1,984 Descending Fort Worth Center
Thu 11:31:22 AM 33.4311 -95.9006 246° West 287 330 15,000 -532 Descending Fort Worth Center
Thu 11:32:24 AM 33.3981 -95.9819 244° Southwest 255 293 14,300 -1,161 Descending Fort Worth Center
Thu 11:33:26 AM 33.3639 -96.0708 245° Southwest 287 330 12,600 -1,548 Descending Fort Worth Center
Thu 11:34:28 AM 33.3303 -96.1575 245° Southwest 289 333 11,100 -1,776 Descending Fort Worth Center
Thu 11:35:31 AM 33.2939 -96.2519 245° Southwest 291 335 8,900 -1,528 Descending Fort Worth Center
Thu 11:37:09 AM 33.2333 -96.3833 241° Southwest 262 302 7,000 -1,427 Descending Dallas / Fort Worth TRACON
Thu 11:38:15 AM 33.1833 -96.4500 228° Southwest 251 289 5,000 -1,381 Descending Dallas / Fort Worth TRACON
Thu 11:39:15 AM 33.1667 -96.5333 257° West 258 297 4,100 -476 Descending Dallas / Fort Worth TRACON
Thu 11:40:21 AM 33.1333 -96.6167 244° Southwest 238 274 4,000 -50 Descending Dallas / Fort Worth TRACON
Thu 11:41:15 AM 33.1000 -96.6833 239° Southwest 244 281 4,000 -421 Level Dallas / Fort Worth TRACON
Thu 11:42:15 AM 33.0833 -96.7500 253° West 236 272 3,200 -733 Descending Dallas / Fort Worth TRACON
Thu 11:42:45 AM 33.0833 -96.7869 270° West 233 268 2,900 -522 Descending Fort Worth Center
Thu 11:43:47 AM 33.0739 -96.8528 260° West 186 214 2,400 -576 Descending Fort Worth Center
Thu 11:44:50 AM 33.0369 -96.8664 197° South 149 171 1,700 -624 Descending Fort Worth Center
Thu 11:45:52 AM 33.0022 -96.8511 160° South 127 146 1,100 -484 Descending Fort Worth Center
Thu 11:46:54 AM 32.9700 -96.8375 160° South 126 145 700 -387 Descending Fort Worth Center
Thu 11:48:00 AM 32.9667 -96.8333 172° South  Level FlightAware Approximate
Thu 11:55:00 AM 32.9686 -96.8364 90° East  Level Estimated

Login

Don't have an account? Register now (free) for customized features, flight alerts, and more!